Terminal Aerodrome Forecast
Issued by NWS Miami, FL

Home | Current Version | Previous Version | Text Only | Print | Product List | Glossary On
Versions: 1 2 3 4 5 6 7 8 9 10 11 12 13 14 15 16 17 18 19 20 21 22 23 24 25 26 27 28 29 30
000
FTUS42 KMFL 211120
TAFPBI
TAF
KPBI 211120Z 2112/2212 31007KT P6SM FEW025 SCT200
     FM211600 34010KT P6SM SCT035 SCT200
     FM212000 02010KT P6SM BKN040
     FM220200 03006KT P6SM SKC=

USA.gov is the U.S. government's official web portal to all federal, state and local government web resources and services.